sensor_id;sensor_type;location;lat;lon;timestamp;pressure;altitude;pressure_sealevel;temperature;humidity
47220;BME280;32961;51.936;4.788;2023-03-19T00:02:22;100996.84;;;11.15;100.00
47220;BME280;32961;51.936;4.788;2023-03-19T00:04:50;100997.69;;;11.16;100.00
47220;BME280;32961;51.936;4.788;2023-03-19T00:07:18;101005.00;;;11.15;100.00
47220;BME280;32961;51.936;4.788;2023-03-19T00:09:46;101009.59;;;11.15;100.00
47220;BME280;32961;51.936;4.788;2023-03-19T00:12:14;101006.00;;;11.14;100.00
47220;BME280;32961;51.936;4.788;2023-03-19T00:14:43;101011.75;;;11.11;100.00
47220;BME280;32961;51.936;4.788;2023-03-19T00:17:11;101004.75;;;11.08;100.00
47220;BME280;32961;51.936;4.788;2023-03-19T00:19:39;101014.91;;;11.06;100.00
47220;BME280;32961;51.936;4.788;2023-03-19T00:22:07;101015.16;;;11.03;100.00
47220;BME280;32961;51.936;4.788;2023-03-19T00:24:35;101013.59;;;11.01;100.00
47220;BME280;32961;51.936;4.788;2023-03-19T00:27:03;101011.88;;;11.00;100.00
47220;BME280;32961;51.936;4.788;2023-03-19T00:29:31;101020.03;;;11.00;100.00
47220;BME280;32961;51.936;4.788;2023-03-19T00:32:00;101014.03;;;10.96;100.00
47220;BME280;32961;51.936;4.788;2023-03-19T00:34:28;101015.91;;;10.96;100.00
47220;BME280;32961;51.936;4.788;2023-03-19T00:36:56;101022.63;;;10.91;100.00
47220;BME280;32961;51.936;4.788;2023-03-19T00:39:24;101024.63;;;10.89;100.00
47220;BME280;32961;51.936;4.788;2023-03-19T00:41:52;101020.91;;;10.90;100.00
47220;BME280;32961;51.936;4.788;2023-03-19T00:44:19;101028.91;;;10.92;100.00
47220;BME280;32961;51.936;4.788;2023-03-19T00:46:47;101025.34;;;10.91;100.00
47220;BME280;32961;51.936;4.788;2023-03-19T00:49:16;101023.63;;;10.90;100.00
47220;BME280;32961;51.936;4.788;2023-03-19T00:51:44;101031.94;;;10.89;100.00
47220;BME280;32961;51.936;4.788;2023-03-19T00:54:13;101026.75;;;10.86;100.00
47220;BME280;32961;51.936;4.788;2023-03-19T00:56:40;101022.31;;;10.85;100.00
47220;BME280;32961;51.936;4.788;2023-03-19T00:59:08;101028.75;;;10.84;100.00
47220;BME280;32961;51.936;4.788;2023-03-19T01:01:36;101031.63;;;10.82;100.00
47220;BME280;32961;51.936;4.788;2023-03-19T01:04:04;101035.34;;;10.81;100.00
47220;BME280;32961;51.936;4.788;2023-03-19T01:06:33;101029.22;;;10.79;100.00
47220;BME280;32961;51.936;4.788;2023-03-19T01:09:02;101031.19;;;10.77;100.00
47220;BME280;32961;51.936;4.788;2023-03-19T01:11:30;101037.94;;;10.73;100.00
47220;BME280;32961;51.936;4.788;2023-03-19T01:13:57;101038.78;;;10.73;100.00
47220;BME280;32961;51.936;4.788;2023-03-19T01:16:26;101038.03;;;10.71;100.00
47220;BME280;32961;51.936;4.788;2023-03-19T01:18:53;101037.34;;;10.69;100.00
47220;BME280;32961;51.936;4.788;2023-03-19T01:21:21;101034.06;;;10.66;100.00
47220;BME280;32961;51.936;4.788;2023-03-19T01:23:50;101029.03;;;10.61;100.00
47220;BME280;32961;51.936;4.788;2023-03-19T01:26:18;101019.44;;;10.57;100.00
47220;BME280;32961;51.936;4.788;2023-03-19T01:28:46;101023.28;;;10.54;100.00
47220;BME280;32961;51.936;4.788;2023-03-19T01:31:13;101031.44;;;10.54;100.00
47220;BME280;32961;51.936;4.788;2023-03-19T01:33:42;101035.16;;;10.53;100.00
47220;BME280;32961;51.936;4.788;2023-03-19T01:36:09;101036.16;;;10.52;100.00
47220;BME280;32961;51.936;4.788;2023-03-19T01:38:37;101042.59;;;10.51;100.00
47220;BME280;32961;51.936;4.788;2023-03-19T01:41:06;101038.56;;;10.46;100.00
47220;BME280;32961;51.936;4.788;2023-03-19T01:43:35;101035.16;;;10.43;100.00
47220;BME280;32961;51.936;4.788;2023-03-19T01:46:05;101035.25;;;10.42;100.00
47220;BME280;32961;51.936;4.788;2023-03-19T01:48:38;101036.41;;;10.39;100.00
47220;BME280;32961;51.936;4.788;2023-03-19T01:51:09;101040.38;;;10.35;100.00
47220;BME280;32961;51.936;4.788;2023-03-19T01:53:39;101026.34;;;10.30;100.00
47220;BME280;32961;51.936;4.788;2023-03-19T01:56:11;101026.91;;;10.24;100.00
47220;BME280;32961;51.936;4.788;2023-03-19T01:58:42;101030.72;;;10.21;100.00
47220;BME280;32961;51.936;4.788;2023-03-19T02:01:11;101041.88;;;10.18;100.00
47220;BME280;32961;51.936;4.788;2023-03-19T02:03:39;101040.16;;;10.17;100.00
47220;BME280;32961;51.936;4.788;2023-03-19T02:06:09;101044.00;;;10.15;100.00
47220;BME280;32961;51.936;4.788;2023-03-19T02:08:38;101050.44;;;10.14;100.00
47220;BME280;32961;51.936;4.788;2023-03-19T02:11:08;101039.88;;;10.10;100.00
47220;BME280;32961;51.936;4.788;2023-03-19T02:13:37;101042.69;;;10.09;100.00
47220;BME280;32961;51.936;4.788;2023-03-19T02:16:06;101043.81;;;10.06;100.00
47220;BME280;32961;51.936;4.788;2023-03-19T02:18:34;101045.69;;;10.06;100.00
47220;BME280;32961;51.936;4.788;2023-03-19T02:21:05;101053.97;;;10.04;100.00
47220;BME280;32961;51.936;4.788;2023-03-19T02:23:37;101053.25;;;10.02;100.00
47220;BME280;32961;51.936;4.788;2023-03-19T02:26:11;101059.53;;;10.03;100.00
47220;BME280;32961;51.936;4.788;2023-03-19T02:28:41;101057.69;;;10.03;100.00
47220;BME280;32961;51.936;4.788;2023-03-19T02:31:11;101053.41;;;10.01;100.00
47220;BME280;32961;51.936;4.788;2023-03-19T02:33:39;101053.41;;;10.01;100.00
47220;BME280;32961;51.936;4.788;2023-03-19T02:36:10;101047.09;;;10.00;100.00
47220;BME280;32961;51.936;4.788;2023-03-19T02:38:42;101051.66;;;10.00;100.00
47220;BME280;32961;51.936;4.788;2023-03-19T02:41:11;101048.97;;;10.00;100.00
47220;BME280;32961;51.936;4.788;2023-03-19T02:43:40;101060.66;;;10.00;100.00
47220;BME280;32961;51.936;4.788;2023-03-19T02:46:10;101058.94;;;9.99;100.00
47220;BME280;32961;51.936;4.788;2023-03-19T02:48:38;101054.38;;;10.00;100.00
47220;BME280;32961;51.936;4.788;2023-03-19T02:51:06;101052.50;;;10.00;100.00
47220;BME280;32961;51.936;4.788;2023-03-19T02:53:34;101047.09;;;10.00;100.00
47220;BME280;32961;51.936;4.788;2023-03-19T02:56:02;101055.22;;;10.00;100.00
47220;BME280;32961;51.936;4.788;2023-03-19T02:58:31;101052.66;;;9.99;100.00
47220;BME280;32961;51.936;4.788;2023-03-19T03:00:59;101063.53;;;9.99;100.00
47220;BME280;32961;51.936;4.788;2023-03-19T03:03:27;101068.09;;;9.98;100.00
47220;BME280;32961;51.936;4.788;2023-03-19T03:05:55;101070.22;;;9.94;100.00
47220;BME280;32961;51.936;4.788;2023-03-19T03:08:23;101060.63;;;9.90;100.00
47220;BME280;32961;51.936;4.788;2023-03-19T03:10:51;101064.47;;;9.88;100.00
47220;BME280;32961;51.936;4.788;2023-03-19T03:13:19;101059.31;;;9.85;100.00
47220;BME280;32961;51.936;4.788;2023-03-19T03:15:48;101056.00;;;9.81;100.00
47220;BME280;32961;51.936;4.788;2023-03-19T03:18:17;101054.53;;;9.77;100.00
47220;BME280;32961;51.936;4.788;2023-03-19T03:20:44;101058.66;;;9.71;100.00
47220;BME280;32961;51.936;4.788;2023-03-19T03:23:12;101053.63;;;9.67;100.00
47220;BME280;32961;51.936;4.788;2023-03-19T03:25:40;101061.19;;;9.63;100.00
47220;BME280;32961;51.936;4.788;2023-03-19T03:28:08;101068.72;;;9.59;100.00
47220;BME280;32961;51.936;4.788;2023-03-19T03:30:35;101074.09;;;9.50;100.00
47220;BME280;32961;51.936;4.788;2023-03-19T03:33:05;101068.91;;;9.46;100.00
47220;BME280;32961;51.936;4.788;2023-03-19T03:35:32;101063.63;;;9.45;100.00
47220;BME280;32961;51.936;4.788;2023-03-19T03:38:00;101065.72;;;9.41;100.00
47220;BME280;32961;51.936;4.788;2023-03-19T03:40:29;101062.31;;;9.39;100.00
47220;BME280;32961;51.936;4.788;2023-03-19T03:42:59;101057.00;;;9.38;100.00
47220;BME280;32961;51.936;4.788;2023-03-19T03:45:27;101065.28;;;9.36;100.00
47220;BME280;32961;51.936;4.788;2023-03-19T03:47:56;101064.53;;;9.34;100.00
47220;BME280;32961;51.936;4.788;2023-03-19T03:50:25;101058.25;;;9.34;100.00
47220;BME280;32961;51.936;4.788;2023-03-19T03:52:53;101061.81;;;9.34;100.00
47220;BME280;32961;51.936;4.788;2023-03-19T03:55:21;101058.41;;;9.32;100.00
47220;BME280;32961;51.936;4.788;2023-03-19T03:57:48;101058.41;;;9.32;100.00
47220;BME280;32961;51.936;4.788;2023-03-19T04:00:16;101055.78;;;9.30;100.00
47220;BME280;32961;51.936;4.788;2023-03-19T04:02:44;101061.38;;;9.29;100.00
47220;BME280;32961;51.936;4.788;2023-03-19T04:05:12;101060.75;;;9.25;100.00
47220;BME280;32961;51.936;4.788;2023-03-19T04:07:41;101057.19;;;9.25;100.00
47220;BME280;32961;51.936;4.788;2023-03-19T04:10:10;101050.19;;;9.22;100.00
47220;BME280;32961;51.936;4.788;2023-03-19T04:12:39;101060.44;;;9.19;100.00
47220;BME280;32961;51.936;4.788;2023-03-19T04:15:09;101061.66;;;9.14;100.00
47220;BME280;32961;51.936;4.788;2023-03-19T04:17:37;101057.22;;;9.13;100.00
47220;BME280;32961;51.936;4.788;2023-03-19T04:20:07;101070.06;;;9.11;100.00
47220;BME280;32961;51.936;4.788;2023-03-19T04:22:35;101066.47;;;9.11;100.00
47220;BME280;32961;51.936;4.788;2023-03-19T04:25:05;101069.09;;;9.12;100.00
47220;BME280;32961;51.936;4.788;2023-03-19T04:27:33;101068.34;;;9.10;100.00
47220;BME280;32961;51.936;4.788;2023-03-19T04:30:02;101071.31;;;9.07;100.00
47220;BME280;32961;51.936;4.788;2023-03-19T04:32:32;101068.00;;;9.04;100.00
47220;BME280;32961;51.936;4.788;2023-03-19T04:35:01;101078.13;;;9.02;100.00
47220;BME280;32961;51.936;4.788;2023-03-19T04:37:29;101071.97;;;8.99;100.00
47220;BME280;32961;51.936;4.788;2023-03-19T04:39:56;101076.53;;;8.99;100.00
47220;BME280;32961;51.936;4.788;2023-03-19T04:42:26;101076.78;;;8.96;100.00
47220;BME280;32961;51.936;4.788;2023-03-19T04:44:53;101085.88;;;8.95;100.00
47220;BME280;32961;51.936;4.788;2023-03-19T04:47:21;101081.44;;;8.94;100.00
47220;BME280;32961;51.936;4.788;2023-03-19T04:49:49;101094.91;;;8.95;100.00
47220;BME280;32961;51.936;4.788;2023-03-19T04:52:17;101098.72;;;8.93;100.00
47220;BME280;32961;51.936;4.788;2023-03-19T04:54:44;101097.00;;;8.92;100.00
47220;BME280;32961;51.936;4.788;2023-03-19T04:57:12;101103.63;;;8.88;100.00
47220;BME280;32961;51.936;4.788;2023-03-19T04:59:41;101109.34;;;8.85;100.00
47220;BME280;32961;51.936;4.788;2023-03-19T05:02:09;101101.44;;;8.81;100.00
47220;BME280;32961;51.936;4.788;2023-03-19T05:04:37;101113.41;;;8.79;100.00
47220;BME280;32961;51.936;4.788;2023-03-19T05:07:05;101114.28;;;8.79;100.00
47220;BME280;32961;51.936;4.788;2023-03-19T05:09:33;101116.97;;;8.79;100.00
47220;BME280;32961;51.936;4.788;2023-03-19T05:12:01;101114.38;;;8.78;100.00
47220;BME280;32961;51.936;4.788;2023-03-19T05:14:29;101123.53;;;8.77;100.00
47220;BME280;32961;51.936;4.788;2023-03-19T05:16:58;101124.38;;;8.77;100.00
47220;BME280;32961;51.936;4.788;2023-03-19T05:19:26;101121.66;;;8.77;100.00
47220;BME280;32961;51.936;4.788;2023-03-19T05:21:54;101120.81;;;8.77;100.00
47220;BME280;32961;51.936;4.788;2023-03-19T05:24:22;101121.94;;;8.74;100.00
47220;BME280;32961;51.936;4.788;2023-03-19T05:26:50;101124.75;;;8.73;100.00
47220;BME280;32961;51.936;4.788;2023-03-19T05:29:18;101126.00;;;8.69;100.00
47220;BME280;32961;51.936;4.788;2023-03-19T05:31:45;101129.81;;;8.66;100.00
47220;BME280;32961;51.936;4.788;2023-03-19T05:34:15;101131.78;;;8.64;100.00
47220;BME280;32961;51.936;4.788;2023-03-19T05:36:42;101133.72;;;8.62;100.00
47220;BME280;32961;51.936;4.788;2023-03-19T05:39:10;101141.16;;;8.60;100.00
47220;BME280;32961;51.936;4.788;2023-03-19T05:41:38;101138.44;;;8.60;100.00
47220;BME280;32961;51.936;4.788;2023-03-19T05:44:06;101147.78;;;8.56;100.00
47220;BME280;32961;51.936;4.788;2023-03-19T05:46:34;101149.78;;;8.54;100.00
47220;BME280;32961;51.936;4.788;2023-03-19T05:49:03;101150.75;;;8.53;100.00
47220;BME280;32961;51.936;4.788;2023-03-19T05:51:32;101158.13;;;8.50;100.00
47220;BME280;32961;51.936;4.788;2023-03-19T05:54:00;101160.84;;;8.50;100.00
47220;BME280;32961;51.936;4.788;2023-03-19T05:56:28;101160.97;;;8.49;100.00
47220;BME280;32961;51.936;4.788;2023-03-19T05:58:56;101166.59;;;8.46;100.00
47220;BME280;32961;51.936;4.788;2023-03-19T06:01:24;101174.84;;;8.44;100.00
47220;BME280;32961;51.936;4.788;2023-03-19T06:03:52;101175.81;;;8.43;100.00
47220;BME280;32961;51.936;4.788;2023-03-19T06:06:20;101179.41;;;8.44;100.00
47220;BME280;32961;51.936;4.788;2023-03-19T06:08:49;101182.97;;;8.44;100.00
47220;BME280;32961;51.936;4.788;2023-03-19T06:11:17;101176.56;;;8.45;100.00
47220;BME280;32961;51.936;4.788;2023-03-19T06:13:44;101176.56;;;8.45;100.00
47220;BME280;32961;51.936;4.788;2023-03-19T06:16:12;101171.28;;;8.44;100.00
47220;BME280;32961;51.936;4.788;2023-03-19T06:18:40;101173.38;;;8.40;100.00
47220;BME280;32961;51.936;4.788;2023-03-19T06:21:08;101166.44;;;8.36;100.00
47220;BME280;32961;51.936;4.788;2023-03-19T06:23:36;101173.47;;;8.39;100.00
47220;BME280;32961;51.936;4.788;2023-03-19T06:26:05;101173.38;;;8.40;100.00
47220;BME280;32961;51.936;4.788;2023-03-19T06:28:33;101177.53;;;8.44;100.00
47220;BME280;32961;51.936;4.788;2023-03-19T06:31:02;101191.22;;;8.43;100.00
47220;BME280;32961;51.936;4.788;2023-03-19T06:33:30;101190.25;;;8.44;100.00
47220;BME280;32961;51.936;4.788;2023-03-19T06:35:59;101200.94;;;8.45;100.00
47220;BME280;32961;51.936;4.788;2023-03-19T06:38:27;101200.00;;;8.46;100.00
47220;BME280;32961;51.936;4.788;2023-03-19T06:40:55;101201.78;;;8.46;100.00
47220;BME280;32961;51.936;4.788;2023-03-19T06:43:24;101197.47;;;8.43;100.00
47220;BME280;32961;51.936;4.788;2023-03-19T06:45:52;101209.28;;;8.42;100.00
47220;BME280;32961;51.936;4.788;2023-03-19T06:48:19;101212.13;;;8.41;100.00
47220;BME280;32961;51.936;4.788;2023-03-19T06:50:47;101205.88;;;8.40;100.00
47220;BME280;32961;51.936;4.788;2023-03-19T06:53:15;101214.22;;;8.37;100.00
47220;BME280;32961;51.936;4.788;2023-03-19T06:55:44;101220.38;;;8.39;100.00
47220;BME280;32961;51.936;4.788;2023-03-19T06:58:12;101221.22;;;8.40;100.00
47220;BME280;32961;51.936;4.788;2023-03-19T07:00:41;101231.09;;;8.41;100.00
47220;BME280;32961;51.936;4.788;2023-03-19T07:03:09;101224.81;;;8.40;100.00
47220;BME280;32961;51.936;4.788;2023-03-19T07:05:37;101229.00;;;8.44;100.00
47220;BME280;32961;51.936;4.788;2023-03-19T07:08:05;101227.06;;;8.46;100.00
47220;BME280;32961;51.936;4.788;2023-03-19T07:10:37;101238.75;;;8.47;100.00
47220;BME280;32961;51.936;4.788;2023-03-19T07:13:05;101239.63;;;8.47;100.00
47220;BME280;32961;51.936;4.788;2023-03-19T07:15:33;101239.38;;;8.50;100.00
47220;BME280;32961;51.936;4.788;2023-03-19T07:18:03;101245.53;;;8.53;100.00
47220;BME280;32961;51.936;4.788;2023-03-19T07:20:31;101250.69;;;8.56;100.00
47220;BME280;32961;51.936;4.788;2023-03-19T07:22:59;101250.59;;;8.57;100.00
47220;BME280;32961;51.936;4.788;2023-03-19T07:25:27;101245.91;;;8.59;100.00
47220;BME280;32961;51.936;4.788;2023-03-19T07:27:55;101252.06;;;8.61;100.00
47220;BME280;32961;51.936;4.788;2023-03-19T07:30:23;101252.69;;;8.65;100.00
47220;BME280;32961;51.936;4.788;2023-03-19T07:32:51;101251.59;;;8.67;100.00
47220;BME280;32961;51.936;4.788;2023-03-19T07:35:20;101263.88;;;8.72;100.00
47220;BME280;32961;51.936;4.788;2023-03-19T07:37:48;101267.22;;;8.75;100.00
47220;BME280;32961;51.936;4.788;2023-03-19T07:40:16;101256.28;;;8.77;100.00
47220;BME280;32961;51.936;4.788;2023-03-19T07:42:44;101254.28;;;8.79;100.00
47220;BME280;32961;51.936;4.788;2023-03-19T07:45:12;101251.34;;;8.82;100.00
47220;BME280;32961;51.936;4.788;2023-03-19T07:47:39;101254.19;;;8.80;100.00
47220;BME280;32961;51.936;4.788;2023-03-19T07:50:08;101254.06;;;8.82;100.00
47220;BME280;32961;51.936;4.788;2023-03-19T07:52:38;101260.19;;;8.84;100.00
47220;BME280;32961;51.936;4.788;2023-03-19T07:55:06;101267.25;;;8.87;100.00
47220;BME280;32961;51.936;4.788;2023-03-19T07:57:34;101273.38;;;8.89;100.00
47220;BME280;32961;51.936;4.788;2023-03-19T08:00:02;101275.88;;;8.92;100.00
47220;BME280;32961;51.936;4.788;2023-03-19T08:02:30;101279.06;;;8.97;100.00
47220;BME280;32961;51.936;4.788;2023-03-19T08:04:58;101279.81;;;8.99;100.00
47220;BME280;32961;51.936;4.788;2023-03-19T08:07:27;101293.34;;;8.99;100.00
47220;BME280;32961;51.936;4.788;2023-03-19T08:09:56;101291.84;;;8.95;100.00
47220;BME280;32961;51.936;4.788;2023-03-19T08:12:24;101282.00;;;8.94;100.00
47220;BME280;32961;51.936;4.788;2023-03-19T08:14:52;101286.44;;;8.95;100.00
47220;BME280;32961;51.936;4.788;2023-03-19T08:17:20;101290.75;;;8.97;100.00
47220;BME280;32961;51.936;4.788;2023-03-19T08:19:48;101298.78;;;8.99;100.00
47220;BME280;32961;51.936;4.788;2023-03-19T08:22:15;101305.19;;;8.98;100.00
47220;BME280;32961;51.936;4.788;2023-03-19T08:24:43;101304.19;;;8.99;100.00
47220;BME280;32961;51.936;4.788;2023-03-19T08:27:12;101311.09;;;9.03;100.00
47220;BME280;32961;51.936;4.788;2023-03-19T08:29:40;101319.00;;;9.06;100.00
47220;BME280;32961;51.936;4.788;2023-03-19T08:32:08;101303.72;;;9.05;100.00
47220;BME280;32961;51.936;4.788;2023-03-19T08:34:36;101303.72;;;9.05;100.00
47220;BME280;32961;51.936;4.788;2023-03-19T08:37:04;101309.00;;;9.07;100.00
47220;BME280;32961;51.936;4.788;2023-03-19T08:39:32;101311.56;;;9.08;100.00
47220;BME280;32961;51.936;4.788;2023-03-19T08:42:00;101311.47;;;9.10;100.00
47220;BME280;32961;51.936;4.788;2023-03-19T08:44:29;101315.78;;;9.12;100.00
47220;BME280;32961;51.936;4.788;2023-03-19T08:46:58;101315.53;;;9.15;100.00
47220;BME280;32961;51.936;4.788;2023-03-19T08:49:26;101316.50;;;9.14;100.00
47220;BME280;32961;51.936;4.788;2023-03-19T08:51:53;101317.13;;;9.18;100.00
47220;BME280;32961;51.936;4.788;2023-03-19T08:54:21;101318.00;;;9.19;100.00
47220;BME280;32961;51.936;4.788;2023-03-19T08:56:49;101319.72;;;9.20;100.00
47220;BME280;32961;51.936;4.788;2023-03-19T08:59:17;101320.59;;;9.20;100.00
47220;BME280;32961;51.936;4.788;2023-03-19T09:01:49;101323.66;;;9.27;100.00
47220;BME280;32961;51.936;4.788;2023-03-19T09:04:17;101328.84;;;9.30;100.00
47220;BME280;32961;51.936;4.788;2023-03-19T09:06:45;101327.97;;;9.29;100.00
47220;BME280;32961;51.936;4.788;2023-03-19T09:09:17;101327.59;;;9.34;100.00
47220;BME280;32961;51.936;4.788;2023-03-19T09:11:45;101337.22;;;9.38;100.00
47220;BME280;32961;51.936;4.788;2023-03-19T09:14:13;101334.00;;;9.33;100.00
47220;BME280;32961;51.936;4.788;2023-03-19T09:16:42;101340.03;;;9.37;100.00
47220;BME280;32961;51.936;4.788;2023-03-19T09:19:11;101345.84;;;9.43;100.00
47220;BME280;32961;51.936;4.788;2023-03-19T09:21:39;101347.31;;;9.47;100.00
47220;BME280;32961;51.936;4.788;2023-03-19T09:24:07;101349.50;;;9.54;100.00
47220;BME280;32961;51.936;4.788;2023-03-19T09:26:35;101351.09;;;9.56;100.00
47220;BME280;32961;51.936;4.788;2023-03-19T09:29:03;101351.63;;;9.61;100.00
47220;BME280;32961;51.936;4.788;2023-03-19T09:31:31;101353.94;;;9.66;100.00
47220;BME280;32961;51.936;4.788;2023-03-19T09:33:59;101358.13;;;9.70;100.00
47220;BME280;32961;51.936;4.788;2023-03-19T09:36:28;101359.72;;;9.73;100.00
47220;BME280;32961;51.936;4.788;2023-03-19T09:38:56;101363.28;;;9.73;100.00
47220;BME280;32961;51.936;4.788;2023-03-19T09:41:28;101369.47;;;9.75;100.00
47220;BME280;32961;51.936;4.788;2023-03-19T09:44:00;101375.63;;;9.77;100.00
47220;BME280;32961;51.936;4.788;2023-03-19T09:46:35;101377.09;;;9.82;100.00
47220;BME280;32961;51.936;4.788;2023-03-19T09:49:11;101377.94;;;9.82;100.00
47220;BME280;32961;51.936;4.788;2023-03-19T09:51:46;101380.19;;;9.88;100.00
47220;BME280;32961;51.936;4.788;2023-03-19T09:54:24;101383.47;;;9.92;100.00
47220;BME280;32961;51.936;4.788;2023-03-19T09:56:53;101385.09;;;9.94;100.00
47220;BME280;32961;51.936;4.788;2023-03-19T09:59:22;101384.97;;;9.96;100.00
47220;BME280;32961;51.936;4.788;2023-03-19T10:01:56;101395.47;;;10.01;100.00
47220;BME280;32961;51.936;4.788;2023-03-19T10:04:36;101404.31;;;10.03;100.00
47220;BME280;32961;51.936;4.788;2023-03-19T10:07:17;101407.63;;;10.06;100.00
47220;BME280;32961;51.936;4.788;2023-03-19T10:09:56;101409.38;;;10.07;100.00
47220;BME280;32961;51.936;4.788;2023-03-19T10:12:41;101405.53;;;10.10;100.00
47220;BME280;32961;51.936;4.788;2023-03-19T10:15:16;101407.41;;;10.09;100.00
47220;BME280;32961;51.936;4.788;2023-03-19T10:17:54;101409.13;;;10.10;100.00
47220;BME280;32961;51.936;4.788;2023-03-19T10:20:29;101410.97;;;10.10;100.00
47220;BME280;32961;51.936;4.788;2023-03-19T10:23:12;101411.09;;;10.08;100.00
47220;BME280;32961;51.936;4.788;2023-03-19T10:25:47;101420.22;;;10.07;100.00
47220;BME280;32961;51.936;4.788;2023-03-19T10:28:17;101416.53;;;10.08;100.00
47220;BME280;32961;51.936;4.788;2023-03-19T10:30:51;101420.00;;;10.10;100.00
47220;BME280;32961;51.936;4.788;2023-03-19T10:33:24;101425.53;;;10.09;100.00
47220;BME280;32961;51.936;4.788;2023-03-19T10:35:57;101431.56;;;10.12;100.00
47220;BME280;32961;51.936;4.788;2023-03-19T10:38:30;101433.16;;;10.15;100.00
47220;BME280;32961;51.936;4.788;2023-03-19T10:41:04;101439.47;;;10.16;100.00
47220;BME280;32961;51.936;4.788;2023-03-19T10:43:42;101440.22;;;10.18;100.00
47220;BME280;32961;51.936;4.788;2023-03-19T10:46:13;101442.81;;;10.19;100.00
47220;BME280;32961;51.936;4.788;2023-03-19T10:48:43;101444.41;;;10.22;100.00
47220;BME280;32961;51.936;4.788;2023-03-19T10:51:12;101444.25;;;10.23;100.00
47220;BME280;32961;51.936;4.788;2023-03-19T10:53:43;101443.03;;;10.27;100.00
47220;BME280;32961;51.936;4.788;2023-03-19T10:56:18;101443.75;;;10.30;100.00
47220;BME280;32961;51.936;4.788;2023-03-19T10:59:00;101457.31;;;10.30;100.00
47220;BME280;32961;51.936;4.788;2023-03-19T11:01:31;101456.19;;;10.32;100.00
47220;BME280;32961;51.936;4.788;2023-03-19T11:04:01;101458.69;;;10.35;100.00
47220;BME280;32961;51.936;4.788;2023-03-19T11:06:31;101454.03;;;10.37;100.00
47220;BME280;32961;51.936;4.788;2023-03-19T11:09:11;101453.00;;;10.38;100.00
47220;BME280;32961;51.936;4.788;2023-03-19T11:11:42;101452.50;;;10.44;100.00
47220;BME280;32961;51.936;4.788;2023-03-19T11:14:14;101456.22;;;10.43;100.00
47220;BME280;32961;51.936;4.788;2023-03-19T11:16:48;101464.38;;;10.43;100.00
47220;BME280;32961;51.936;4.788;2023-03-19T11:19:19;101457.22;;;10.42;100.00
47220;BME280;32961;51.936;4.788;2023-03-19T11:22:08;101467.09;;;10.43;100.00
47220;BME280;32961;51.936;4.788;2023-03-19T11:24:38;101453.22;;;10.47;100.00
47220;BME280;32961;51.936;4.788;2023-03-19T11:27:07;101458.16;;;10.53;100.00
47220;BME280;32961;51.936;4.788;2023-03-19T11:29:40;101454.19;;;10.57;100.00
47220;BME280;32961;51.936;4.788;2023-03-19T11:32:20;101460.81;;;10.64;100.00
47220;BME280;32961;51.936;4.788;2023-03-19T11:34:55;101450.91;;;10.74;100.00
47220;BME280;32961;51.936;4.788;2023-03-19T11:37:31;101451.84;;;10.85;100.00
47220;BME280;32961;51.936;4.788;2023-03-19T11:40:08;101452.50;;;10.98;100.00
47220;BME280;32961;51.936;4.788;2023-03-19T11:42:58;101458.47;;;11.13;100.00
47220;BME280;32961;51.936;4.788;2023-03-19T11:45:34;101459.28;;;11.25;100.00
47220;BME280;32961;51.936;4.788;2023-03-19T11:48:27;101453.34;;;11.41;100.00
47220;BME280;32961;51.936;4.788;2023-03-19T11:50:59;101457.69;;;11.53;100.00
47220;BME280;32961;51.936;4.788;2023-03-19T11:53:30;101465.91;;;11.63;99.67
47220;BME280;32961;51.936;4.788;2023-03-19T11:56:11;101462.53;;;11.71;98.99
47220;BME280;32961;51.936;4.788;2023-03-19T11:58:56;101458.66;;;11.74;98.20
47220;BME280;32961;51.936;4.788;2023-03-19T12:01:52;101454.81;;;11.76;97.35
47220;BME280;32961;51.936;4.788;2023-03-19T12:04:35;101452.66;;;11.80;96.67
47220;BME280;32961;51.936;4.788;2023-03-19T12:07:18;101457.81;;;11.83;96.19
47220;BME280;32961;51.936;4.788;2023-03-19T12:09:55;101456.41;;;11.88;96.04
47220;BME280;32961;51.936;4.788;2023-03-19T12:12:33;101456.66;;;12.07;96.77
47220;BME280;32961;51.936;4.788;2023-03-19T12:15:12;101454.56;;;12.30;96.33
47220;BME280;32961;51.936;4.788;2023-03-19T12:17:57;101448.97;;;12.51;96.04
47220;BME280;32961;51.936;4.788;2023-03-19T12:20:31;101444.81;;;12.66;95.24
47220;BME280;32961;51.936;4.788;2023-03-19T12:23:04;101450.56;;;12.83;94.70
47220;BME280;32961;51.936;4.788;2023-03-19T12:25:44;101449.66;;;13.02;92.63
47220;BME280;32961;51.936;4.788;2023-03-19T12:28:23;101450.81;;;13.09;92.21
47220;BME280;32961;51.936;4.788;2023-03-19T12:31:08;101454.66;;;13.26;91.45
47220;BME280;32961;51.936;4.788;2023-03-19T12:33:44;101448.75;;;13.41;91.11
47220;BME280;32961;51.936;4.788;2023-03-19T12:36:18;101446.75;;;13.43;89.64
47220;BME280;32961;51.936;4.788;2023-03-19T12:38:50;101445.03;;;13.42;88.99
47220;BME280;32961;51.936;4.788;2023-03-19T12:41:22;101452.50;;;13.40;88.22
47220;BME280;32961;51.936;4.788;2023-03-19T12:43:54;101456.50;;;13.45;88.18
47220;BME280;32961;51.936;4.788;2023-03-19T12:46:26;101450.91;;;13.47;87.73
47220;BME280;32961;51.936;4.788;2023-03-19T12:49:02;101452.59;;;13.58;88.16
47220;BME280;32961;51.936;4.788;2023-03-19T12:51:34;101452.66;;;13.76;87.67
47220;BME280;32961;51.936;4.788;2023-03-19T12:54:06;101451.75;;;13.85;85.20
47220;BME280;32961;51.936;4.788;2023-03-19T12:56:42;101449.97;;;13.94;81.30
47220;BME280;32961;51.936;4.788;2023-03-19T12:59:17;101455.09;;;14.07;83.04
47220;BME280;32961;51.936;4.788;2023-03-19T13:01:54;101459.16;;;14.21;81.83